sensor_id;sensor_type;location;lat;lon;timestamp;pressure;altitude;pressure_sealevel;temperature;humidity
54854;BME280;40747;49.480;8.658;2023-02-22T00:01:17;100240.66;;;7.14;91.38
54854;BME280;40747;49.480;8.658;2023-02-22T00:04:11;100237.19;;;7.12;91.20
54854;BME280;40747;49.480;8.658;2023-02-22T00:06:37;100224.88;;;7.17;91.30
54854;BME280;40747;49.480;8.658;2023-02-22T00:09:02;100226.59;;;7.18;91.29
54854;BME280;40747;49.480;8.658;2023-02-22T00:11:28;100227.41;;;7.21;91.48
54854;BME280;40747;49.480;8.658;2023-02-22T00:13:55;100233.44;;;7.27;91.82
54854;BME280;40747;49.480;8.658;2023-02-22T00:16:22;100224.50;;;7.37;91.31
54854;BME280;40747;49.480;8.658;2023-02-22T00:18:47;100227.25;;;7.31;91.43
54854;BME280;40747;49.480;8.658;2023-02-22T00:21:14;100231.59;;;7.32;91.63
54854;BME280;40747;49.480;8.658;2023-02-22T00:23:42;100228.94;;;7.33;91.15
54854;BME280;40747;49.480;8.658;2023-02-22T00:26:12;100233.94;;;7.47;90.56
54854;BME280;40747;49.480;8.658;2023-02-22T00:28:37;100224.03;;;7.62;89.59
54854;BME280;40747;49.480;8.658;2023-02-22T00:31:04;100222.09;;;7.71;89.31
54854;BME280;40747;49.480;8.658;2023-02-22T00:33:31;100222.09;;;7.71;89.11
54854;BME280;40747;49.480;8.658;2023-02-22T00:35:57;100220.44;;;7.67;89.85
54854;BME280;40747;49.480;8.658;2023-02-22T00:38:23;100221.00;;;7.82;88.76
54854;BME280;40747;49.480;8.658;2023-02-22T00:40:48;100211.84;;;7.59;88.93
54854;BME280;40747;49.480;8.658;2023-02-22T00:43:14;100215.31;;;7.61;89.36
54854;BME280;40747;49.480;8.658;2023-02-22T00:45:40;100222.22;;;7.65;90.10
54854;BME280;40747;49.480;8.658;2023-02-22T00:48:06;100222.84;;;7.77;89.59
54854;BME280;40747;49.480;8.658;2023-02-22T00:50:33;100209.63;;;7.83;89.18
54854;BME280;40747;49.480;8.658;2023-02-22T00:53:00;100206.50;;;7.64;88.82
54854;BME280;40747;49.480;8.658;2023-02-22T00:55:29;100209.19;;;7.15;89.42
54854;BME280;40747;49.480;8.658;2023-02-22T00:57:56;100189.50;;;6.93;89.85
54854;BME280;40747;49.480;8.658;2023-02-22T01:02:49;100202.44;;;7.02;90.17
54854;BME280;40747;49.480;8.658;2023-02-22T01:05:17;100204.56;;;6.80;91.10
54854;BME280;40747;49.480;8.658;2023-02-22T01:07:43;100197.31;;;6.97;90.14
54854;BME280;40747;49.480;8.658;2023-02-22T01:10:10;100196.97;;;7.14;90.04
54854;BME280;40747;49.480;8.658;2023-02-22T01:12:36;100194.03;;;7.33;88.80
54854;BME280;40747;49.480;8.658;2023-02-22T01:15:03;100195.47;;;7.48;88.43
54854;BME280;40747;49.480;8.658;2023-02-22T01:17:29;100191.22;;;7.42;87.62
54854;BME280;40747;49.480;8.658;2023-02-22T01:19:55;100191.31;;;7.37;87.90
54854;BME280;40747;49.480;8.658;2023-02-22T01:22:21;100187.03;;;7.33;87.98
54854;BME280;40747;49.480;8.658;2023-02-22T01:24:48;100186.25;;;6.80;88.89
54854;BME280;40747;49.480;8.658;2023-02-22T01:27:14;100182.69;;;6.84;88.36
54854;BME280;40747;49.480;8.658;2023-02-22T01:29:39;100194.66;;;6.46;90.69
54854;BME280;40747;49.480;8.658;2023-02-22T01:32:05;100191.66;;;6.70;90.36
54854;BME280;40747;49.480;8.658;2023-02-22T01:34:31;100193.06;;;6.90;89.31
54854;BME280;40747;49.480;8.658;2023-02-22T01:36:57;100187.72;;;6.96;89.66
54854;BME280;40747;49.480;8.658;2023-02-22T01:39:22;100186.75;;;7.00;89.47
54854;BME280;40747;49.480;8.658;2023-02-22T01:41:48;100184.09;;;7.02;89.38
54854;BME280;40747;49.480;8.658;2023-02-22T01:44:26;100180.66;;;7.00;89.19
54854;BME280;40747;49.480;8.658;2023-02-22T01:46:54;100184.28;;;6.93;89.70
54854;BME280;40747;49.480;8.658;2023-02-22T01:49:20;100183.47;;;6.91;89.75
54854;BME280;40747;49.480;8.658;2023-02-22T01:51:48;100182.56;;;6.90;89.99
54854;BME280;40747;49.480;8.658;2023-02-22T01:57:05;100175.84;;;6.77;89.36
54854;BME280;40747;49.480;8.658;2023-02-22T01:59:35;100174.16;;;6.74;89.56
54854;BME280;40747;49.480;8.658;2023-02-22T02:02:02;100169.75;;;6.75;89.42
54854;BME280;40747;49.480;8.658;2023-02-22T02:04:29;100173.22;;;6.77;89.61
54854;BME280;40747;49.480;8.658;2023-02-22T02:07:03;100174.09;;;6.76;89.65
54854;BME280;40747;49.480;8.658;2023-02-22T02:09:57;100172.38;;;6.75;89.94
54854;BME280;40747;49.480;8.658;2023-02-22T02:12:23;100161.13;;;6.69;90.26
54854;BME280;40747;49.480;8.658;2023-02-22T02:14:50;100158.47;;;6.71;90.92
54854;BME280;40747;49.480;8.658;2023-02-22T02:17:18;100161.13;;;6.69;90.61
54854;BME280;40747;49.480;8.658;2023-02-22T02:22:26;100160.38;;;6.63;91.08
54854;BME280;40747;49.480;8.658;2023-02-22T02:41:38;100140.72;;;6.38;91.61
54854;BME280;40747;49.480;8.658;2023-02-22T02:44:11;100126.91;;;6.29;92.03
54854;BME280;40747;49.480;8.658;2023-02-22T02:46:53;100137.28;;;6.35;92.42
54854;BME280;40747;49.480;8.658;2023-02-22T02:49:30;100139.03;;;6.34;92.32
54854;BME280;40747;49.480;8.658;2023-02-22T02:51:59;100141.00;;;6.20;93.46
54854;BME280;40747;49.480;8.658;2023-02-22T02:54:25;100138.50;;;6.12;94.87
54854;BME280;40747;49.480;8.658;2023-02-22T02:56:50;100138.59;;;6.06;96.35
54854;BME280;40747;49.480;8.658;2023-02-22T03:04:50;100130.75;;;6.06;99.13
54854;BME280;40747;49.480;8.658;2023-02-22T03:10:16;100129.00;;;6.06;98.94
54854;BME280;40747;49.480;8.658;2023-02-22T03:15:42;100126.63;;;5.88;100.00
54854;BME280;40747;49.480;8.658;2023-02-22T03:18:14;100128.63;;;5.69;100.00
54854;BME280;40747;49.480;8.658;2023-02-22T03:20:57;100128.75;;;5.60;100.00
54854;BME280;40747;49.480;8.658;2023-02-22T03:23:31;100129.72;;;5.51;100.00
54854;BME280;40747;49.480;8.658;2023-02-22T03:26:08;100123.63;;;5.52;100.00
54854;BME280;40747;49.480;8.658;2023-02-22T03:28:37;100121.81;;;5.60;100.00
54854;BME280;40747;49.480;8.658;2023-02-22T03:31:09;100133.13;;;5.59;100.00
54854;BME280;40747;49.480;8.658;2023-02-22T03:33:41;100127.09;;;5.52;100.00
54854;BME280;40747;49.480;8.658;2023-02-22T03:36:14;100116.66;;;5.54;100.00
54854;BME280;40747;49.480;8.658;2023-02-22T03:38:43;100112.16;;;5.64;100.00
54854;BME280;40747;49.480;8.658;2023-02-22T03:41:10;100103.38;;;5.69;100.00
54854;BME280;40747;49.480;8.658;2023-02-22T03:43:42;100119.72;;;5.84;99.86
54854;BME280;40747;49.480;8.658;2023-02-22T03:46:11;100118.78;;;5.88;100.00
54854;BME280;40747;49.480;8.658;2023-02-22T03:48:53;100117.03;;;5.87;99.51
54854;BME280;40747;49.480;8.658;2023-02-22T03:51:21;100117.91;;;5.87;98.88
54854;BME280;40747;49.480;8.658;2023-02-22T03:53:47;100109.19;;;5.88;99.35
54854;BME280;40747;49.480;8.658;2023-02-22T03:56:19;100106.78;;;5.74;98.59
54854;BME280;40747;49.480;8.658;2023-02-22T03:58:46;100107.19;;;5.45;96.12
54854;BME280;40747;49.480;8.658;2023-02-22T04:01:13;100104.78;;;5.27;96.62
54854;BME280;40747;49.480;8.658;2023-02-22T04:03:40;100107.66;;;5.05;96.85
54854;BME280;40747;49.480;8.658;2023-02-22T04:06:07;100108.63;;;4.96;99.29
54854;BME280;40747;49.480;8.658;2023-02-22T04:08:32;100103.13;;;5.21;98.78
54854;BME280;40747;49.480;8.658;2023-02-22T04:10:58;100103.88;;;5.32;98.25
54854;BME280;40747;49.480;8.658;2023-02-22T04:13:23;100105.69;;;5.27;97.49
54854;BME280;40747;49.480;8.658;2023-02-22T04:15:48;100102.25;;;5.22;98.55
54854;BME280;40747;49.480;8.658;2023-02-22T04:18:14;100097.84;;;5.25;98.94
54854;BME280;40747;49.480;8.658;2023-02-22T04:20:39;100101.28;;;5.29;98.90
54854;BME280;40747;49.480;8.658;2023-02-22T04:23:05;100099.50;;;5.33;99.13
54854;BME280;40747;49.480;8.658;2023-02-22T04:25:30;100098.66;;;5.32;99.16
54854;BME280;40747;49.480;8.658;2023-02-22T04:27:56;100099.41;;;5.39;98.39
54854;BME280;40747;49.480;8.658;2023-02-22T04:30:21;100101.09;;;5.43;97.80
54854;BME280;40747;49.480;8.658;2023-02-22T04:32:47;100101.97;;;5.44;97.95
54854;BME280;40747;49.480;8.658;2023-02-22T04:35:12;100108.97;;;5.41;97.84
54854;BME280;40747;49.480;8.658;2023-02-22T04:37:38;100105.50;;;5.39;97.96
54854;BME280;40747;49.480;8.658;2023-02-22T04:40:04;100107.53;;;5.16;98.66
54854;BME280;40747;49.480;8.658;2023-02-22T04:42:35;100113.63;;;5.16;97.91
54854;BME280;40747;49.480;8.658;2023-02-22T04:45:00;100106.84;;;5.01;97.18
54854;BME280;40747;49.480;8.658;2023-02-22T04:47:26;100110.25;;;5.08;97.36
54854;BME280;40747;49.480;8.658;2023-02-22T04:49:51;100113.78;;;5.04;97.42
54854;BME280;40747;49.480;8.658;2023-02-22T04:52:16;100125.34;;;4.78;99.13
54854;BME280;40747;49.480;8.658;2023-02-22T04:54:42;100122.94;;;4.58;100.00
54854;BME280;40747;49.480;8.658;2023-02-22T04:57:07;100126.50;;;4.49;100.00
54854;BME280;40747;49.480;8.658;2023-02-22T04:59:32;100121.16;;;4.62;100.00
54854;BME280;40747;49.480;8.658;2023-02-22T05:01:58;100126.25;;;4.74;100.00
54854;BME280;40747;49.480;8.658;2023-02-22T05:04:25;100120.91;;;4.86;100.00
54854;BME280;40747;49.480;8.658;2023-02-22T05:06:50;100122.56;;;4.93;100.00
54854;BME280;40747;49.480;8.658;2023-02-22T05:09:15;100123.44;;;4.94;100.00
54854;BME280;40747;49.480;8.658;2023-02-22T05:11:40;100116.44;;;4.96;100.00
54854;BME280;40747;49.480;8.658;2023-02-22T05:14:06;100119.06;;;4.98;99.97
54854;BME280;40747;49.480;8.658;2023-02-22T05:16:32;100119.13;;;4.91;100.00
54854;BME280;40747;49.480;8.658;2023-02-22T05:18:57;100097.53;;;4.79;100.00
54854;BME280;40747;49.480;8.658;2023-02-22T05:21:22;100115.63;;;4.94;100.00
54854;BME280;40747;49.480;8.658;2023-02-22T05:23:48;100113.84;;;4.98;100.00
54854;BME280;40747;49.480;8.658;2023-02-22T05:26:13;100105.16;;;4.96;100.00
54854;BME280;40747;49.480;8.658;2023-02-22T05:28:38;100107.75;;;4.97;100.00
54854;BME280;40747;49.480;8.658;2023-02-22T05:31:04;100094.59;;;5.05;100.00
54854;BME280;40747;49.480;8.658;2023-02-22T05:33:29;100102.31;;;4.32;100.00
54854;BME280;40747;49.480;8.658;2023-02-22T05:35:54;100097.59;;;3.64;100.00
54854;BME280;40747;49.480;8.658;2023-02-22T05:38:20;100094.25;;;3.38;100.00
54854;BME280;40747;49.480;8.658;2023-02-22T05:40:47;100090.78;;;3.35;100.00
54854;BME280;40747;49.480;8.658;2023-02-22T05:43:12;100081.25;;;3.35;100.00
54854;BME280;40747;49.480;8.658;2023-02-22T05:45:39;100093.31;;;3.52;100.00
54854;BME280;40747;49.480;8.658;2023-02-22T05:48:05;100086.13;;;3.88;100.00
54854;BME280;40747;49.480;8.658;2023-02-22T05:50:30;100087.75;;;4.01;100.00
54854;BME280;40747;49.480;8.658;2023-02-22T05:52:57;100087.75;;;4.06;100.00
54854;BME280;40747;49.480;8.658;2023-02-22T05:55:23;100087.00;;;3.88;100.00
54854;BME280;40747;49.480;8.658;2023-02-22T05:57:50;100081.03;;;3.72;100.00
54854;BME280;40747;49.480;8.658;2023-02-22T06:00:19;100086.22;;;3.75;100.00
54854;BME280;40747;49.480;8.658;2023-02-22T06:03:12;100093.13;;;3.80;100.00
54854;BME280;40747;49.480;8.658;2023-02-22T06:05:38;100088.81;;;3.75;100.00
54854;BME280;40747;49.480;8.658;2023-02-22T06:08:04;100093.22;;;3.67;100.00
54854;BME280;40747;49.480;8.658;2023-02-22T06:10:30;100094.88;;;3.79;100.00
54854;BME280;40747;49.480;8.658;2023-02-22T06:12:56;100091.41;;;3.75;100.00
54854;BME280;40747;49.480;8.658;2023-02-22T06:15:23;100103.63;;;3.70;100.00
54854;BME280;40747;49.480;8.658;2023-02-22T06:17:49;100095.81;;;3.64;100.00
54854;BME280;40747;49.480;8.658;2023-02-22T06:20:17;100103.63;;;3.69;100.00
54854;BME280;40747;49.480;8.658;2023-02-22T06:22:42;100099.50;;;3.27;100.00
54854;BME280;40747;49.480;8.658;2023-02-22T06:25:15;100117.81;;;2.97;100.00
54854;BME280;40747;49.480;8.658;2023-02-22T06:27:40;100113.53;;;2.88;100.00
54854;BME280;40747;49.480;8.658;2023-02-22T06:30:06;100123.91;;;2.91;100.00
54854;BME280;40747;49.480;8.658;2023-02-22T06:32:32;100126.53;;;2.85;100.00
54854;BME280;40747;49.480;8.658;2023-02-22T06:34:57;100124.78;;;2.84;100.00
54854;BME280;40747;49.480;8.658;2023-02-22T06:37:22;100129.97;;;2.84;100.00
54854;BME280;40747;49.480;8.658;2023-02-22T06:39:48;100129.16;;;2.74;100.00
54854;BME280;40747;49.480;8.658;2023-02-22T06:42:13;100134.34;;;2.69;100.00
54854;BME280;40747;49.480;8.658;2023-02-22T06:44:38;100136.97;;;2.61;100.00
54854;BME280;40747;49.480;8.658;2023-02-22T06:47:04;100134.38;;;2.60;100.00
54854;BME280;40747;49.480;8.658;2023-02-22T06:49:29;100141.31;;;2.61;100.00
54854;BME280;40747;49.480;8.658;2023-02-22T06:51:54;100138.69;;;2.70;100.00
54854;BME280;40747;49.480;8.658;2023-02-22T06:54:21;100139.53;;;2.78;100.00
54854;BME280;40747;49.480;8.658;2023-02-22T06:56:47;100141.22;;;3.07;100.00
54854;BME280;40747;49.480;8.658;2023-02-22T06:59:13;100145.50;;;3.24;100.00
54854;BME280;40747;49.480;8.658;2023-02-22T07:01:41;100120.22;;;3.48;100.00
54854;BME280;40747;49.480;8.658;2023-02-22T07:04:06;100140.84;;;3.89;100.00
54854;BME280;40747;49.480;8.658;2023-02-22T07:06:32;100123.41;;;3.96;100.00
54854;BME280;40747;49.480;8.658;2023-02-22T07:08:57;100146.66;;;4.27;100.00
54854;BME280;40747;49.480;8.658;2023-02-22T07:11:23;100140.44;;;4.47;100.00
54854;BME280;40747;49.480;8.658;2023-02-22T07:13:48;100144.59;;;4.66;100.00
54854;BME280;40747;49.480;8.658;2023-02-22T07:16:14;100159.25;;;4.81;100.00
54854;BME280;40747;49.480;8.658;2023-02-22T07:18:39;100136.69;;;4.77;100.00
54854;BME280;40747;49.480;8.658;2023-02-22T07:21:05;100158.25;;;4.93;100.00
54854;BME280;40747;49.480;8.658;2023-02-22T07:23:30;100154.06;;;4.80;100.00
54854;BME280;40747;49.480;8.658;2023-02-22T07:25:59;100150.47;;;4.88;100.00
54854;BME280;40747;49.480;8.658;2023-02-22T07:28:24;100145.31;;;4.81;100.00
54854;BME280;40747;49.480;8.658;2023-02-22T07:30:49;100141.75;;;4.92;100.00
54854;BME280;40747;49.480;8.658;2023-02-22T07:33:15;100147.63;;;5.12;100.00
54854;BME280;40747;49.480;8.658;2023-02-22T07:35:45;100149.09;;;5.34;100.00
54854;BME280;40747;49.480;8.658;2023-02-22T07:38:12;100135.22;;;5.31;100.00
54854;BME280;40747;49.480;8.658;2023-02-22T07:40:38;100145.47;;;5.48;100.00
54854;BME280;40747;49.480;8.658;2023-02-22T07:43:13;100127.19;;;5.48;100.00
54854;BME280;40747;49.480;8.658;2023-02-22T07:45:38;100147.13;;;5.53;100.00
54854;BME280;40747;49.480;8.658;2023-02-22T07:48:05;100147.84;;;5.65;100.00
54854;BME280;40747;49.480;8.658;2023-02-22T07:50:31;100145.13;;;5.72;100.00
54854;BME280;40747;49.480;8.658;2023-02-22T07:53:01;100140.63;;;5.84;100.00
54854;BME280;40747;49.480;8.658;2023-02-22T07:55:29;100143.19;;;5.87;100.00
54854;BME280;40747;49.480;8.658;2023-02-22T07:57:57;100114.56;;;5.78;100.00
54854;BME280;40747;49.480;8.658;2023-02-22T08:00:27;100142.09;;;6.03;100.00
54854;BME280;40747;49.480;8.658;2023-02-22T08:02:54;100142.72;;;6.21;100.00
54854;BME280;40747;49.480;8.658;2023-02-22T08:05:20;100145.97;;;6.35;100.00
54854;BME280;40747;49.480;8.658;2023-02-22T08:07:47;100143.13;;;6.49;100.00
54854;BME280;40747;49.480;8.658;2023-02-22T08:10:14;100147.34;;;6.58;100.00
54854;BME280;40747;49.480;8.658;2023-02-22T08:12:40;100139.19;;;6.75;98.75
54854;BME280;40747;49.480;8.658;2023-02-22T08:15:08;100133.78;;;6.86;98.68
54854;BME280;40747;49.480;8.658;2023-02-22T08:17:33;100145.09;;;6.86;97.22
54854;BME280;40747;49.480;8.658;2023-02-22T08:19:58;100139.69;;;6.97;96.99
54854;BME280;40747;49.480;8.658;2023-02-22T08:22:24;100138.69;;;7.03;97.32
54854;BME280;40747;49.480;8.658;2023-02-22T08:24:51;100146.25;;;7.18;96.37
54854;BME280;40747;49.480;8.658;2023-02-22T08:27:25;100123.44;;;7.24;95.77
54854;BME280;40747;49.480;8.658;2023-02-22T08:29:51;100125.41;;;7.14;95.63
54854;BME280;40747;49.480;8.658;2023-02-22T08:32:16;100138.44;;;7.17;96.74
54854;BME280;40747;49.480;8.658;2023-02-22T08:34:42;100134.25;;;7.07;96.56
54854;BME280;40747;49.480;8.658;2023-02-22T08:37:07;100131.53;;;7.13;97.63
54854;BME280;40747;49.480;8.658;2023-02-22T08:39:33;100141.19;;;7.09;97.67
54854;BME280;40747;49.480;8.658;2023-02-22T08:41:58;100113.25;;;7.10;97.19
54854;BME280;40747;49.480;8.658;2023-02-22T08:44:24;100123.38;;;7.28;96.90
54854;BME280;40747;49.480;8.658;2023-02-22T08:46:49;100135.25;;;7.45;96.64
54854;BME280;40747;49.480;8.658;2023-02-22T08:49:16;100139.91;;;7.73;96.32
54854;BME280;40747;49.480;8.658;2023-02-22T08:51:41;100135.81;;;8.00;94.48
54854;BME280;40747;49.480;8.658;2023-02-22T08:54:07;100133.75;;;8.13;93.39
54854;BME280;40747;49.480;8.658;2023-02-22T08:56:32;100133.63;;;8.19;92.84
54854;BME280;40747;49.480;8.658;2023-02-22T08:58:57;100130.63;;;8.34;92.19
54854;BME280;40747;49.480;8.658;2023-02-22T09:01:23;100139.97;;;8.46;91.60
54854;BME280;40747;49.480;8.658;2023-02-22T09:03:49;100132.19;;;8.78;91.32
54854;BME280;40747;49.480;8.658;2023-02-22T09:06:15;100133.97;;;9.09;90.45
54854;BME280;40747;49.480;8.658;2023-02-22T09:08:40;100127.00;;;9.39;86.46
54854;BME280;40747;49.480;8.658;2023-02-22T09:11:05;100125.47;;;9.62;85.48
54854;BME280;40747;49.480;8.658;2023-02-22T09:13:31;100125.66;;;9.56;84.41
54854;BME280;40747;49.480;8.658;2023-02-22T09:15:56;100126.44;;;9.59;83.65
54854;BME280;40747;49.480;8.658;2023-02-22T09:18:22;100127.88;;;9.70;83.30
54854;BME280;40747;49.480;8.658;2023-02-22T09:20:47;100129.94;;;9.88;82.70
54854;BME280;40747;49.480;8.658;2023-02-22T09:23:12;100125.06;;;10.04;80.97
54854;BME280;40747;49.480;8.658;2023-02-22T09:25:38;100130.63;;;10.22;80.98
54854;BME280;40747;49.480;8.658;2023-02-22T09:28:05;100131.53;;;10.49;79.07
54854;BME280;40747;49.480;8.658;2023-02-22T09:30:32;100135.56;;;10.86;77.93
54854;BME280;40747;49.480;8.658;2023-02-22T09:33:06;100107.69;;;11.04;76.22
54854;BME280;40747;49.480;8.658;2023-02-22T09:35:36;100123.50;;;11.04;75.25
54854;BME280;40747;49.480;8.658;2023-02-22T09:38:03;100116.63;;;11.24;74.98
54854;BME280;40747;49.480;8.658;2023-02-22T09:40:32;100111.69;;;11.14;74.17
54854;BME280;40747;49.480;8.658;2023-02-22T09:46:03;100117.03;;;11.13;74.15
54854;BME280;40747;49.480;8.658;2023-02-22T09:48:44;100107.06;;;11.21;73.69
54854;BME280;40747;49.480;8.658;2023-02-22T09:51:16;100101.69;;;11.24;72.65
54854;BME280;40747;49.480;8.658;2023-02-22T09:53:44;100101.47;;;11.30;73.11
54854;BME280;40747;49.480;8.658;2023-02-22T09:56:13;100099.00;;;11.26;71.73
54854;BME280;40747;49.480;8.658;2023-02-22T09:58:45;100100.19;;;11.41;71.32
54854;BME280;40747;49.480;8.658;2023-02-22T10:03:59;100096.16;;;11.78;70.05
54854;BME280;40747;49.480;8.658;2023-02-22T10:06:28;100098.34;;;11.67;69.45
54854;BME280;40747;49.480;8.658;2023-02-22T10:08:57;100094.41;;;11.55;70.23
54854;BME280;40747;49.480;8.658;2023-02-22T10:11:42;100097.78;;;11.35;71.65
54854;BME280;40747;49.480;8.658;2023-02-22T10:22:55;100080.09;;;11.38;71.85
54854;BME280;40747;49.480;8.658;2023-02-22T10:25:26;100082.13;;;11.06;72.27
54854;BME280;40747;49.480;8.658;2023-02-22T10:28:21;100072.50;;;11.29;72.51
54854;BME280;40747;49.480;8.658;2023-02-22T10:30:57;100070.09;;;11.46;71.67
54854;BME280;40747;49.480;8.658;2023-02-22T10:33:32;100057.50;;;11.53;70.70
54854;BME280;40747;49.480;8.658;2023-02-22T10:35:59;100070.47;;;11.59;71.25
54854;BME280;40747;49.480;8.658;2023-02-22T10:38:28;100074.31;;;11.96;70.05
54854;BME280;40747;49.480;8.658;2023-02-22T10:41:18;100070.22;;;11.88;69.31
54854;BME280;40747;49.480;8.658;2023-02-22T10:43:45;100075.59;;;12.08;69.44
54854;BME280;40747;49.480;8.658;2023-02-22T10:46:14;100063.38;;;12.28;68.57
54854;BME280;40747;49.480;8.658;2023-02-22T10:48:44;100066.91;;;12.27;68.95
54854;BME280;40747;49.480;8.658;2023-02-22T10:51:11;100062.91;;;12.39;67.43
54854;BME280;40747;49.480;8.658;2023-02-22T10:53:37;100067.34;;;12.59;68.85
54854;BME280;40747;49.480;8.658;2023-02-22T10:58:41;100063.19;;;13.33;64.84
54854;BME280;40747;49.480;8.658;2023-02-22T11:03:42;100047.66;;;13.82;65.47
54854;BME280;40747;49.480;8.658;2023-02-22T11:06:28;100051.00;;;13.86;63.16
54854;BME280;40747;49.480;8.658;2023-02-22T11:09:14;100055.81;;;14.14;62.50
54854;BME280;40747;49.480;8.658;2023-02-22T11:11:42;100045.03;;;14.00;62.44
54854;BME280;40747;49.480;8.658;2023-02-22T11:14:08;100039.59;;;13.66;64.24
54854;BME280;40747;49.480;8.658;2023-02-22T11:16:50;100043.94;;;13.86;64.93
54854;BME280;40747;49.480;8.658;2023-02-22T11:19:20;100046.09;;;14.15;63.04
54854;BME280;40747;49.480;8.658;2023-02-22T11:21:49;100041.72;;;14.14;62.27
54854;BME280;40747;49.480;8.658;2023-02-22T11:24:20;100024.88;;;14.15;61.67
54854;BME280;40747;49.480;8.658;2023-02-22T11:26:52;100037.41;;;14.46;62.06
54854;BME280;40747;49.480;8.658;2023-02-22T11:29:23;100034.97;;;14.59;61.68
54854;BME280;40747;49.480;8.658;2023-02-22T11:31:49;100032.91;;;14.48;61.33
54854;BME280;40747;49.480;8.658;2023-02-22T11:34:36;100030.91;;;13.82;61.78
54854;BME280;40747;49.480;8.658;2023-02-22T11:37:35;100026.50;;;14.00;62.53
54854;BME280;40747;49.480;8.658;2023-02-22T11:40:20;99999.91;;;13.66;63.39
54854;BME280;40747;49.480;8.658;2023-02-22T11:43:06;100021.84;;;14.05;62.73
54854;BME280;40747;49.480;8.658;2023-02-22T11:45:37;100017.88;;;14.31;61.92
54854;BME280;40747;49.480;8.658;2023-02-22T11:48:05;100021.44;;;13.95;62.04
54854;BME280;40747;49.480;8.658;2023-02-22T11:50:51;99998.94;;;14.21;62.69
54854;BME280;40747;49.480;8.658;2023-02-22T11:53:28;100006.22;;;14.51;61.12
54854;BME280;40747;49.480;8.658;2023-02-22T11:56:15;100003.91;;;14.10;61.69
54854;BME280;40747;49.480;8.658;2023-02-22T12:13:13;99993.50;;;14.07;62.09
54854;BME280;40747;49.480;8.658;2023-02-22T12:15:54;99986.31;;;14.26;63.09
54854;BME280;40747;49.480;8.658;2023-02-22T12:18:51;99983.66;;;14.44;63.59
54854;BME280;40747;49.480;8.658;2023-02-22T12:21:25;99987.72;;;14.34;63.64
54854;BME280;40747;49.480;8.658;2023-02-22T12:24:22;99966.22;;;14.40;62.25
54854;BME280;40747;49.480;8.658;2023-02-22T12:27:02;99979.69;;;14.18;62.68
54854;BME280;40747;49.480;8.658;2023-02-22T12:29:36;99972.06;;;14.12;63.03
54854;BME280;40747;49.480;8.658;2023-02-22T12:32:08;99964.97;;;14.30;63.23
54854;BME280;40747;49.480;8.658;2023-02-22T12:34:55;99975.00;;;14.23;63.83
54854;BME280;40747;49.480;8.658;2023-02-22T12:37:33;99963.69;;;14.54;63.99
54854;BME280;40747;49.480;8.658;2023-02-22T12:45:28;99961.75;;;14.40;62.77
54854;BME280;40747;49.480;8.658;2023-02-22T12:48:04;99966.81;;;14.45;62.92
54854;BME280;40747;49.480;8.658;2023-02-22T12:50:33;99966.25;;;14.56;63.19
54854;BME280;40747;49.480;8.658;2023-02-22T12:53:07;99961.53;;;14.45;63.14
54854;BME280;40747;49.480;8.658;2023-02-22T12:55:44;99956.53;;;14.39;63.51
54854;BME280;40747;49.480;8.658;2023-02-22T13:01:17;99948.00;;;14.67;63.08
54854;BME280;40747;49.480;8.658;2023-02-22T13:03:46;99953.69;;;14.93;62.80
54854;BME280;40747;49.480;8.658;2023-02-22T13:14:12;99951.22;;;14.90;63.07
54854;BME280;40747;49.480;8.658;2023-02-22T13:16:52;99943.44;;;15.03;63.48
54854;BME280;40747;49.480;8.658;2023-02-22T13:19:37;99933.16;;;14.97;62.76
54854;BME280;40747;49.480;8.658;2023-02-22T13:22:12;99933.06;;;14.98;63.79
54854;BME280;40747;49.480;8.658;2023-02-22T13:24:45;99934.19;;;14.94;62.66
54854;BME280;40747;49.480;8.658;2023-02-22T13:27:34;99933.34;;;14.94;63.41
54854;BME280;40747;49.480;8.658;2023-02-22T13:30:04;99929.84;;;15.09;63.17
54854;BME280;40747;49.480;8.658;2023-02-22T13:32:48;99928.03;;;15.10;63.43
54854;BME280;40747;49.480;8.658;2023-02-22T13:38:22;99922.91;;;15.22;63.80
54854;BME280;40747;49.480;8.658;2023-02-22T13:41:07;99923.34;;;15.31;64.19
54854;BME280;40747;49.480;8.658;2023-02-22T13:44:04;99926.59;;;15.36;64.01
54854;BME280;40747;49.480;8.658;2023-02-22T13:46:56;99924.09;;;15.33;64.25
54854;BME280;40747;49.480;8.658;2023-02-22T13:52:28;99912.19;;;15.86;63.61
54854;BME280;40747;49.480;8.658;2023-02-22T13:54:58;99912.66;;;15.93;63.21
54854;BME280;40747;49.480;8.658;2023-02-22T13:57:32;99907.84;;;15.69;63.61
54854;BME280;40747;49.480;8.658;2023-02-22T14:10:55;99913.84;;;15.73;63.76
54854;BME280;40747;49.480;8.658;2023-02-22T14:13:22;99905.28;;;15.68;63.48
54854;BME280;40747;49.480;8.658;2023-02-22T14:21:33;99902.94;;;15.31;63.46
54854;BME280;40747;49.480;8.658;2023-02-22T14:24:19;99909.34;;;15.43;64.62
54854;BME280;40747;49.480;8.658;2023-02-22T14:27:03;99910.22;;;15.28;64.79
54854;BME280;40747;49.480;8.658;2023-02-22T14:29:29;99893.13;;;14.85;64.92
54854;BME280;40747;49.480;8.658;2023-02-22T14:32:07;99902.97;;;14.99;64.70
54854;BME280;40747;49.480;8.658;2023-02-22T14:34:53;99893.03;;;15.19;64.39
54854;BME280;40747;49.480;8.658;2023-02-22T14:37:25;99900.97;;;15.19;63.38
54854;BME280;40747;49.480;8.658;2023-02-22T14:42:36;99894.25;;;15.13;63.52
54854;BME280;40747;49.480;8.658;2023-02-22T14:47:44;99891.59;;;15.13;64.01
54854;BME280;40747;49.480;8.658;2023-02-22T14:50:31;99886.63;;;15.23;62.83
54854;BME280;40747;49.480;8.658;2023-02-22T14:53:21;99894.16;;;15.31;63.24
54854;BME280;40747;49.480;8.658;2023-02-22T14:55:57;99897.53;;;15.33;63.70
54854;BME280;40747;49.480;8.658;2023-02-22T14:58:37;99899.59;;;15.28;63.68
54854;BME280;40747;49.480;8.658;2023-02-22T15:03:48;99900.09;;;15.34;63.52
54854;BME280;40747;49.480;8.658;2023-02-22T15:06:20;99898.56;;;15.30;63.05